sensor_id;sensor_type;location;lat;lon;timestamp;temperature;humidity
65584;DHT22;62116;43.582;1.470;2022-09-25T00:00:43;16.53;72.59
65584;DHT22;62116;43.582;1.470;2022-09-25T00:03:13;16.49;72.75
65584;DHT22;62116;43.582;1.470;2022-09-25T00:05:40;16.54;72.67
65584;DHT22;62116;43.582;1.470;2022-09-25T00:08:07;16.56;72.61
65584;DHT22;62116;43.582;1.470;2022-09-25T00:10:33;16.54;72.64
65584;DHT22;62116;43.582;1.470;2022-09-25T00:12:59;16.49;72.60
65584;DHT22;62116;43.582;1.470;2022-09-25T00:15:24;16.49;72.27
65584;DHT22;62116;43.582;1.470;2022-09-25T00:17:50;16.52;72.54
65584;DHT22;62116;43.582;1.470;2022-09-25T00:20:17;16.47;72.77
65584;DHT22;62116;43.582;1.470;2022-09-25T00:22:44;16.42;73.29
65584;DHT22;62116;43.582;1.470;2022-09-25T00:25:11;16.43;72.82
65584;DHT22;62116;43.582;1.470;2022-09-25T00:27:40;16.36;73.20
65584;DHT22;62116;43.582;1.470;2022-09-25T00:30:06;16.34;73.16
65584;DHT22;62116;43.582;1.470;2022-09-25T00:32:32;16.34;73.13
65584;DHT22;62116;43.582;1.470;2022-09-25T00:34:57;16.34;73.09
65584;DHT22;62116;43.582;1.470;2022-09-25T00:37:23;16.33;73.13
65584;DHT22;62116;43.582;1.470;2022-09-25T00:39:48;16.33;72.98
65584;DHT22;62116;43.582;1.470;2022-09-25T00:42:18;16.34;72.87
65584;DHT22;62116;43.582;1.470;2022-09-25T00:44:54;16.27;73.42
65584;DHT22;62116;43.582;1.470;2022-09-25T00:47:32;16.26;73.37
65584;DHT22;62116;43.582;1.470;2022-09-25T00:50:02;16.20;73.76
65584;DHT22;62116;43.582;1.470;2022-09-25T00:52:29;16.24;73.43
65584;DHT22;62116;43.582;1.470;2022-09-25T00:54:59;16.23;73.53
65584;DHT22;62116;43.582;1.470;2022-09-25T00:57:28;16.23;73.47
65584;DHT22;62116;43.582;1.470;2022-09-25T00:59:58;16.22;73.68
65584;DHT22;62116;43.582;1.470;2022-09-25T01:02:29;16.22;73.39
65584;DHT22;62116;43.582;1.470;2022-09-25T01:05:02;16.16;73.84
65584;DHT22;62116;43.582;1.470;2022-09-25T01:07:29;16.16;73.53
65584;DHT22;62116;43.582;1.470;2022-09-25T01:09:56;16.17;73.57
65584;DHT22;62116;43.582;1.470;2022-09-25T01:12:24;16.16;73.58
65584;DHT22;62116;43.582;1.470;2022-09-25T01:14:50;16.10;73.77
65584;DHT22;62116;43.582;1.470;2022-09-25T01:17:23;16.08;73.62
65584;DHT22;62116;43.582;1.470;2022-09-25T01:30:49;16.06;73.98
65584;DHT22;62116;43.582;1.470;2022-09-25T01:33:26;16.09;73.47
65584;DHT22;62116;43.582;1.470;2022-09-25T01:36:25;16.06;73.23
65584;DHT22;62116;43.582;1.470;2022-09-25T01:39:06;16.08;73.38
65584;DHT22;62116;43.582;1.470;2022-09-25T01:41:53;16.09;73.34
65584;DHT22;62116;43.582;1.470;2022-09-25T01:44:29;16.02;73.79
65584;DHT22;62116;43.582;1.470;2022-09-25T01:47:01;16.03;73.81
65584;DHT22;62116;43.582;1.470;2022-09-25T01:49:31;15.92;74.21
65584;DHT22;62116;43.582;1.470;2022-09-25T01:51:59;15.89;74.45
65584;DHT22;62116;43.582;1.470;2022-09-25T01:54:32;15.93;73.99
65584;DHT22;62116;43.582;1.470;2022-09-25T01:57:11;15.91;74.33
65584;DHT22;62116;43.582;1.470;2022-09-25T02:02:20;15.93;73.99
65584;DHT22;62116;43.582;1.470;2022-09-25T02:04:55;15.89;74.02
65584;DHT22;62116;43.582;1.470;2022-09-25T02:07:28;15.89;74.06
65584;DHT22;62116;43.582;1.470;2022-09-25T02:09:57;15.85;74.32
65584;DHT22;62116;43.582;1.470;2022-09-25T02:12:32;15.79;74.69
65584;DHT22;62116;43.582;1.470;2022-09-25T02:15:11;15.82;74.74
65584;DHT22;62116;43.582;1.470;2022-09-25T02:17:46;15.81;73.92
65584;DHT22;62116;43.582;1.470;2022-09-25T02:20:34;15.77;74.53
65584;DHT22;62116;43.582;1.470;2022-09-25T02:23:24;15.72;74.95
65584;DHT22;62116;43.582;1.470;2022-09-25T02:26:03;15.73;74.79
65584;DHT22;62116;43.582;1.470;2022-09-25T02:28:30;15.75;74.55
65584;DHT22;62116;43.582;1.470;2022-09-25T02:30:56;15.72;74.73
65584;DHT22;62116;43.582;1.470;2022-09-25T02:33:24;15.73;74.81
65584;DHT22;62116;43.582;1.470;2022-09-25T02:35:50;15.72;74.64
65584;DHT22;62116;43.582;1.470;2022-09-25T02:38:16;15.73;74.44
65584;DHT22;62116;43.582;1.470;2022-09-25T02:40:55;15.75;74.73
65584;DHT22;62116;43.582;1.470;2022-09-25T02:43:44;15.72;74.67
65584;DHT22;62116;43.582;1.470;2022-09-25T02:48:53;15.69;74.95
65584;DHT22;62116;43.582;1.470;2022-09-25T02:51:36;15.69;74.58
65584;DHT22;62116;43.582;1.470;2022-09-25T02:54:13;15.61;75.12
65584;DHT22;62116;43.582;1.470;2022-09-25T02:57:01;15.61;74.88
65584;DHT22;62116;43.582;1.470;2022-09-25T02:59:33;15.62;74.45
65584;DHT22;62116;43.582;1.470;2022-09-25T03:02:00;15.62;74.60
65584;DHT22;62116;43.582;1.470;2022-09-25T03:04:26;15.62;74.85
65584;DHT22;62116;43.582;1.470;2022-09-25T03:06:52;15.57;74.80
65584;DHT22;62116;43.582;1.470;2022-09-25T03:09:19;15.58;74.85
65584;DHT22;62116;43.582;1.470;2022-09-25T03:11:46;15.54;74.93
65584;DHT22;62116;43.582;1.470;2022-09-25T03:14:11;15.49;74.61
65584;DHT22;62116;43.582;1.470;2022-09-25T03:16:44;15.48;75.09
65584;DHT22;62116;43.582;1.470;2022-09-25T03:19:10;15.48;75.05
65584;DHT22;62116;43.582;1.470;2022-09-25T03:21:36;15.47;75.19
65584;DHT22;62116;43.582;1.470;2022-09-25T03:24:01;15.49;74.84
65584;DHT22;62116;43.582;1.470;2022-09-25T03:26:27;15.52;74.65
65584;DHT22;62116;43.582;1.470;2022-09-25T03:28:53;15.51;74.84
65584;DHT22;62116;43.582;1.470;2022-09-25T03:31:19;15.55;74.65
65584;DHT22;62116;43.582;1.470;2022-09-25T03:33:45;15.54;74.57
65584;DHT22;62116;43.582;1.470;2022-09-25T03:38:41;15.49;74.37
65584;DHT22;62116;43.582;1.470;2022-09-25T03:41:08;15.49;74.36
65584;DHT22;62116;43.582;1.470;2022-09-25T03:43:35;15.49;74.32
65584;DHT22;62116;43.582;1.470;2022-09-25T03:46:02;15.47;74.22
65584;DHT22;62116;43.582;1.470;2022-09-25T03:48:29;15.44;74.41
65584;DHT22;62116;43.582;1.470;2022-09-25T03:50:54;15.41;74.24
65584;DHT22;62116;43.582;1.470;2022-09-25T03:53:21;15.38;74.48
65584;DHT22;62116;43.582;1.470;2022-09-25T03:55:46;15.41;74.03
65584;DHT22;62116;43.582;1.470;2022-09-25T03:58:13;15.32;74.37
65584;DHT22;62116;43.582;1.470;2022-09-25T04:00:39;15.35;74.62
65584;DHT22;62116;43.582;1.470;2022-09-25T04:03:05;15.34;74.50
65584;DHT22;62116;43.582;1.470;2022-09-25T04:05:30;15.31;74.59
65584;DHT22;62116;43.582;1.470;2022-09-25T04:07:56;15.30;74.48
65584;DHT22;62116;43.582;1.470;2022-09-25T04:10:22;15.28;74.71
65584;DHT22;62116;43.582;1.470;2022-09-25T04:12:47;15.28;74.63
65584;DHT22;62116;43.582;1.470;2022-09-25T04:15:20;15.24;74.77
65584;DHT22;62116;43.582;1.470;2022-09-25T04:17:49;15.25;74.46
65584;DHT22;62116;43.582;1.470;2022-09-25T04:20:15;15.27;74.78
65584;DHT22;62116;43.582;1.470;2022-09-25T04:22:41;15.27;74.96
65584;DHT22;62116;43.582;1.470;2022-09-25T04:25:06;15.18;75.10
65584;DHT22;62116;43.582;1.470;2022-09-25T04:27:34;15.23;75.05
65584;DHT22;62116;43.582;1.470;2022-09-25T04:30:02;15.24;74.73
65584;DHT22;62116;43.582;1.470;2022-09-25T04:32:27;15.18;74.94
65584;DHT22;62116;43.582;1.470;2022-09-25T04:35:11;15.21;74.94
65584;DHT22;62116;43.582;1.470;2022-09-25T04:37:36;15.18;74.87
65584;DHT22;62116;43.582;1.470;2022-09-25T04:40:02;15.23;74.89
65584;DHT22;62116;43.582;1.470;2022-09-25T04:42:27;15.18;74.48
65584;DHT22;62116;43.582;1.470;2022-09-25T04:44:54;15.18;75.18
65584;DHT22;62116;43.582;1.470;2022-09-25T04:47:25;15.17;74.75
65584;DHT22;62116;43.582;1.470;2022-09-25T04:49:51;15.15;74.96
65584;DHT22;62116;43.582;1.470;2022-09-25T04:52:17;15.14;74.92
65584;DHT22;62116;43.582;1.470;2022-09-25T04:54:44;15.14;74.86
65584;DHT22;62116;43.582;1.470;2022-09-25T04:57:14;15.11;74.85
65584;DHT22;62116;43.582;1.470;2022-09-25T04:59:40;15.08;74.86
65584;DHT22;62116;43.582;1.470;2022-09-25T05:02:05;15.07;74.72
65584;DHT22;62116;43.582;1.470;2022-09-25T05:04:31;15.01;74.94
65584;DHT22;62116;43.582;1.470;2022-09-25T05:06:57;15.01;75.17
65584;DHT22;62116;43.582;1.470;2022-09-25T05:09:22;14.98;75.45
65584;DHT22;62116;43.582;1.470;2022-09-25T05:11:47;14.96;75.04
65584;DHT22;62116;43.582;1.470;2022-09-25T05:14:13;14.90;74.77
65584;DHT22;62116;43.582;1.470;2022-09-25T05:16:38;14.91;75.23
65584;DHT22;62116;43.582;1.470;2022-09-25T05:19:04;14.90;75.38
65584;DHT22;62116;43.582;1.470;2022-09-25T05:21:29;14.83;75.88
65584;DHT22;62116;43.582;1.470;2022-09-25T05:23:55;14.83;75.56
65584;DHT22;62116;43.582;1.470;2022-09-25T05:26:21;14.79;75.92
65584;DHT22;62116;43.582;1.470;2022-09-25T05:28:50;14.77;75.92
65584;DHT22;62116;43.582;1.470;2022-09-25T05:31:15;14.76;76.02
65584;DHT22;62116;43.582;1.470;2022-09-25T05:33:41;14.72;76.47
65584;DHT22;62116;43.582;1.470;2022-09-25T05:36:08;14.73;76.02
65584;DHT22;62116;43.582;1.470;2022-09-25T05:38:35;14.76;75.92
65584;DHT22;62116;43.582;1.470;2022-09-25T05:41:11;14.74;75.95
65584;DHT22;62116;43.582;1.470;2022-09-25T05:43:41;14.76;75.97
65584;DHT22;62116;43.582;1.470;2022-09-25T05:46:07;14.76;75.73
65584;DHT22;62116;43.582;1.470;2022-09-25T05:48:33;14.77;75.40
65584;DHT22;62116;43.582;1.470;2022-09-25T05:50:58;14.79;75.25
65584;DHT22;62116;43.582;1.470;2022-09-25T05:53:24;14.79;75.22
65584;DHT22;62116;43.582;1.470;2022-09-25T05:55:53;14.74;75.03
65584;DHT22;62116;43.582;1.470;2022-09-25T05:58:19;14.74;75.25
65584;DHT22;62116;43.582;1.470;2022-09-25T06:00:46;14.73;75.46
65584;DHT22;62116;43.582;1.470;2022-09-25T06:03:11;14.72;75.35
65584;DHT22;62116;43.582;1.470;2022-09-25T06:05:37;14.74;75.65
65584;DHT22;62116;43.582;1.470;2022-09-25T06:08:04;14.77;76.01
65584;DHT22;62116;43.582;1.470;2022-09-25T06:10:31;14.76;75.48
65584;DHT22;62116;43.582;1.470;2022-09-25T06:12:58;14.76;75.95
65584;DHT22;62116;43.582;1.470;2022-09-25T06:15:28;14.72;76.98
65584;DHT22;62116;43.582;1.470;2022-09-25T06:17:54;14.79;76.82
65584;DHT22;62116;43.582;1.470;2022-09-25T06:20:20;14.83;76.98
65584;DHT22;62116;43.582;1.470;2022-09-25T06:22:53;14.87;76.62
65584;DHT22;62116;43.582;1.470;2022-09-25T06:25:23;14.87;76.27
65584;DHT22;62116;43.582;1.470;2022-09-25T06:27:54;14.94;76.24
65584;DHT22;62116;43.582;1.470;2022-09-25T06:30:20;14.91;76.78
65584;DHT22;62116;43.582;1.470;2022-09-25T06:32:47;14.97;77.03
65584;DHT22;62116;43.582;1.470;2022-09-25T06:35:13;15.03;77.07
65584;DHT22;62116;43.582;1.470;2022-09-25T06:37:39;15.03;76.74
65584;DHT22;62116;43.582;1.470;2022-09-25T06:40:04;15.08;76.73
65584;DHT22;62116;43.582;1.470;2022-09-25T06:42:30;15.10;77.05
65584;DHT22;62116;43.582;1.470;2022-09-25T06:44:58;15.11;76.56
65584;DHT22;62116;43.582;1.470;2022-09-25T06:47:23;15.14;76.78
65584;DHT22;62116;43.582;1.470;2022-09-25T06:49:48;15.17;76.98
65584;DHT22;62116;43.582;1.470;2022-09-25T06:52:14;15.20;76.80
65584;DHT22;62116;43.582;1.470;2022-09-25T06:54:39;15.12;76.91
65584;DHT22;62116;43.582;1.470;2022-09-25T06:57:05;15.12;77.02
65584;DHT22;62116;43.582;1.470;2022-09-25T06:59:32;15.17;76.56
65584;DHT22;62116;43.582;1.470;2022-09-25T07:01:57;15.24;76.03
65584;DHT22;62116;43.582;1.470;2022-09-25T07:04:43;15.28;76.10
65584;DHT22;62116;43.582;1.470;2022-09-25T07:07:09;15.34;76.02
65584;DHT22;62116;43.582;1.470;2022-09-25T07:09:35;15.37;75.90
65584;DHT22;62116;43.582;1.470;2022-09-25T07:12:00;15.39;76.09
65584;DHT22;62116;43.582;1.470;2022-09-25T07:14:26;15.42;75.82
65584;DHT22;62116;43.582;1.470;2022-09-25T07:16:52;15.49;75.54
65584;DHT22;62116;43.582;1.470;2022-09-25T07:19:17;15.45;75.18
65584;DHT22;62116;43.582;1.470;2022-09-25T07:21:42;15.34;75.12
65584;DHT22;62116;43.582;1.470;2022-09-25T07:24:08;15.44;74.69
65584;DHT22;62116;43.582;1.470;2022-09-25T07:26:34;15.54;74.74
65584;DHT22;62116;43.582;1.470;2022-09-25T07:29:03;15.52;74.68
65584;DHT22;62116;43.582;1.470;2022-09-25T07:31:30;15.61;74.29
65584;DHT22;62116;43.582;1.470;2022-09-25T07:33:57;15.62;74.65
65584;DHT22;62116;43.582;1.470;2022-09-25T07:36:24;15.68;74.33
65584;DHT22;62116;43.582;1.470;2022-09-25T07:38:53;15.72;73.96
65584;DHT22;62116;43.582;1.470;2022-09-25T07:41:20;15.82;73.61
65584;DHT22;62116;43.582;1.470;2022-09-25T07:43:53;15.83;72.99
65584;DHT22;62116;43.582;1.470;2022-09-25T07:46:21;15.86;73.25
65584;DHT22;62116;43.582;1.470;2022-09-25T07:48:50;15.83;73.20
65584;DHT22;62116;43.582;1.470;2022-09-25T07:51:16;15.88;72.90
65584;DHT22;62116;43.582;1.470;2022-09-25T07:53:41;15.92;72.88
65584;DHT22;62116;43.582;1.470;2022-09-25T07:56:08;15.98;72.68
65584;DHT22;62116;43.582;1.470;2022-09-25T07:58:35;16.01;72.34
65584;DHT22;62116;43.582;1.470;2022-09-25T08:01:03;16.12;72.34
65584;DHT22;62116;43.582;1.470;2022-09-25T08:03:29;16.13;72.08
65584;DHT22;62116;43.582;1.470;2022-09-25T08:06:05;16.20;72.06
65584;DHT22;62116;43.582;1.470;2022-09-25T08:08:33;16.26;71.77
65584;DHT22;62116;43.582;1.470;2022-09-25T08:11:04;16.29;71.76
65584;DHT22;62116;43.582;1.470;2022-09-25T08:13:31;16.42;71.58
65584;DHT22;62116;43.582;1.470;2022-09-25T08:15:58;16.40;71.34
65584;DHT22;62116;43.582;1.470;2022-09-25T08:18:23;16.34;71.61
65584;DHT22;62116;43.582;1.470;2022-09-25T08:20:49;16.37;71.21
65584;DHT22;62116;43.582;1.470;2022-09-25T08:23:14;16.52;71.06
65584;DHT22;62116;43.582;1.470;2022-09-25T08:25:39;16.59;71.20
65584;DHT22;62116;43.582;1.470;2022-09-25T08:28:05;16.59;70.13
65584;DHT22;62116;43.582;1.470;2022-09-25T08:30:30;16.67;70.31
65584;DHT22;62116;43.582;1.470;2022-09-25T08:32:56;16.84;70.33
65584;DHT22;62116;43.582;1.470;2022-09-25T08:35:21;17.03;69.73
65584;DHT22;62116;43.582;1.470;2022-09-25T08:37:46;17.41;69.54
65584;DHT22;62116;43.582;1.470;2022-09-25T08:40:23;17.71;68.04
65584;DHT22;62116;43.582;1.470;2022-09-25T08:42:52;17.87;67.01
65584;DHT22;62116;43.582;1.470;2022-09-25T08:45:30;18.23;66.12
65584;DHT22;62116;43.582;1.470;2022-09-25T08:48:23;18.57;63.93
65584;DHT22;62116;43.582;1.470;2022-09-25T08:51:09;19.02;64.72
65584;DHT22;62116;43.582;1.470;2022-09-25T08:53:35;19.26;62.55
65584;DHT22;62116;43.582;1.470;2022-09-25T08:56:03;19.56;62.67
65584;DHT22;62116;43.582;1.470;2022-09-25T08:58:41;19.77;62.65
65584;DHT22;62116;43.582;1.470;2022-09-25T09:01:15;19.61;60.92
65584;DHT22;62116;43.582;1.470;2022-09-25T09:04:14;19.82;61.57
65584;DHT22;62116;43.582;1.470;2022-09-25T09:06:45;19.94;61.31
65584;DHT22;62116;43.582;1.470;2022-09-25T09:12:42;19.86;60.56
65584;DHT22;62116;43.582;1.470;2022-09-25T09:15:17;19.75;61.18
65584;DHT22;62116;43.582;1.470;2022-09-25T09:17:44;19.75;61.50
65584;DHT22;62116;43.582;1.470;2022-09-25T09:20:16;19.66;61.23
65584;DHT22;62116;43.582;1.470;2022-09-25T09:22:46;19.79;61.64
65584;DHT22;62116;43.582;1.470;2022-09-25T09:25:19;19.56;60.91
65584;DHT22;62116;43.582;1.470;2022-09-25T09:33:30;19.83;61.03
65584;DHT22;62116;43.582;1.470;2022-09-25T09:52:47;19.94;60.05
65584;DHT22;62116;43.582;1.470;2022-09-25T09:57:51;20.60;59.19
65584;DHT22;62116;43.582;1.470;2022-09-25T10:00:19;20.47;58.06
65584;DHT22;62116;43.582;1.470;2022-09-25T10:03:04;20.70;58.57
65584;DHT22;62116;43.582;1.470;2022-09-25T10:05:47;20.64;57.20
65584;DHT22;62116;43.582;1.470;2022-09-25T10:08:13;20.60;57.42
65584;DHT22;62116;43.582;1.470;2022-09-25T10:10:44;20.83;57.57
65584;DHT22;62116;43.582;1.470;2022-09-25T10:13:30;20.64;57.50
65584;DHT22;62116;43.582;1.470;2022-09-25T10:16:01;20.61;57.87
65584;DHT22;62116;43.582;1.470;2022-09-25T10:18:33;20.63;57.07
65584;DHT22;62116;43.582;1.470;2022-09-25T10:21:13;20.50;57.56
65584;DHT22;62116;43.582;1.470;2022-09-25T10:26:31;20.60;57.63
65584;DHT22;62116;43.582;1.470;2022-09-25T10:29:03;20.73;56.99
65584;DHT22;62116;43.582;1.470;2022-09-25T10:31:35;20.85;57.21
65584;DHT22;62116;43.582;1.470;2022-09-25T10:34:10;20.96;57.09
65584;DHT22;62116;43.582;1.470;2022-09-25T10:36:46;21.01;56.05
65584;DHT22;62116;43.582;1.470;2022-09-25T10:39:31;21.08;55.95
65584;DHT22;62116;43.582;1.470;2022-09-25T10:41:58;21.18;55.80
65584;DHT22;62116;43.582;1.470;2022-09-25T10:44:32;21.01;55.39
65584;DHT22;62116;43.582;1.470;2022-09-25T10:50:08;20.74;55.70
65584;DHT22;62116;43.582;1.470;2022-09-25T10:52:47;20.75;55.78
65584;DHT22;62116;43.582;1.470;2022-09-25T10:55:36;20.80;56.62
65584;DHT22;62116;43.582;1.470;2022-09-25T11:00:33;21.02;55.38
65584;DHT22;62116;43.582;1.470;2022-09-25T11:03:03;20.91;55.77
65584;DHT22;62116;43.582;1.470;2022-09-25T11:05:32;20.81;56.05
65584;DHT22;62116;43.582;1.470;2022-09-25T11:08:01;20.63;56.46
65584;DHT22;62116;43.582;1.470;2022-09-25T11:10:32;20.41;55.55
65584;DHT22;62116;43.582;1.470;2022-09-25T11:12:59;20.39;55.93
65584;DHT22;62116;43.582;1.470;2022-09-25T11:15:27;20.50;56.24
65584;DHT22;62116;43.582;1.470;2022-09-25T11:17:54;20.51;56.18
65584;DHT22;62116;43.582;1.470;2022-09-25T11:20:29;20.55;55.81
65584;DHT22;62116;43.582;1.470;2022-09-25T11:25:47;20.73;55.75
65584;DHT22;62116;43.582;1.470;2022-09-25T11:31:04;20.84;54.67
65584;DHT22;62116;43.582;1.470;2022-09-25T11:36:30;20.87;54.60
65584;DHT22;62116;43.582;1.470;2022-09-25T11:39:02;20.90;54.76
65584;DHT22;62116;43.582;1.470;2022-09-25T11:41:54;20.91;54.46
65584;DHT22;62116;43.582;1.470;2022-09-25T11:47:10;20.80;54.45
65584;DHT22;62116;43.582;1.470;2022-09-25T11:49:37;20.78;54.81
65584;DHT22;62116;43.582;1.470;2022-09-25T11:55:07;20.63;55.30
65584;DHT22;62116;43.582;1.470;2022-09-25T11:58:05;20.54;55.67
65584;DHT22;62116;43.582;1.470;2022-09-25T12:03:44;20.45;55.35
65584;DHT22;62116;43.582;1.470;2022-09-25T12:12:01;20.30;55.30
65584;DHT22;62116;43.582;1.470;2022-09-25T12:15:01;20.37;55.04
65584;DHT22;62116;43.582;1.470;2022-09-25T12:20:10;20.40;54.97
65584;DHT22;62116;43.582;1.470;2022-09-25T12:28:33;20.39;54.51
65584;DHT22;62116;43.582;1.470;2022-09-25T12:36:47;20.16;52.98
65584;DHT22;62116;43.582;1.470;2022-09-25T12:42:36;20.12;52.63
65584;DHT22;62116;43.582;1.470;2022-09-25T12:45:08;20.10;52.17
65584;DHT22;62116;43.582;1.470;2022-09-25T12:50:19;20.10;53.22
65584;DHT22;62116;43.582;1.470;2022-09-25T12:55:25;20.20;53.40
65584;DHT22;62116;43.582;1.470;2022-09-25T12:58:12;20.14;53.20
65584;DHT22;62116;43.582;1.470;2022-09-25T13:00:44;20.17;54.04
65584;DHT22;62116;43.582;1.470;2022-09-25T13:03:19;20.19;54.61
65584;DHT22;62116;43.582;1.470;2022-09-25T13:05:52;20.17;54.60
65584;DHT22;62116;43.582;1.470;2022-09-25T13:08:28;20.20;54.30
65584;DHT22;62116;43.582;1.470;2022-09-25T13:11:05;20.19;53.66
65584;DHT22;62116;43.582;1.470;2022-09-25T13:13:38;20.14;53.75
65584;DHT22;62116;43.582;1.470;2022-09-25T13:16:05;20.09;53.81
65584;DHT22;62116;43.582;1.470;2022-09-25T13:18:30;20.10;53.34
65584;DHT22;62116;43.582;1.470;2022-09-25T13:21:22;20.09;53.08
65584;DHT22;62116;43.582;1.470;2022-09-25T13:23:49;20.09;52.49
65584;DHT22;62116;43.582;1.470;2022-09-25T13:26:18;20.06;52.32
65584;DHT22;62116;43.582;1.470;2022-09-25T13:29:11;20.03;52.77
65584;DHT22;62116;43.582;1.470;2022-09-25T13:31:39;19.99;52.80
65584;DHT22;62116;43.582;1.470;2022-09-25T13:34:17;19.96;53.05
65584;DHT22;62116;43.582;1.470;2022-09-25T13:36:51;19.96;53.48
65584;DHT22;62116;43.582;1.470;2022-09-25T13:45:03;19.82;51.75
65584;DHT22;62116;43.582;1.470;2022-09-25T14:03:03;19.96;51.28
65584;DHT22;62116;43.582;1.470;2022-09-25T14:05:31;19.86;51.20
65584;DHT22;62116;43.582;1.470;2022-09-25T14:08:13;19.85;51.42
65584;DHT22;62116;43.582;1.470;2022-09-25T14:10:48;19.85;51.68
65584;DHT22;62116;43.582;1.470;2022-09-25T14:13:16;19.82;51.92
65584;DHT22;62116;43.582;1.470;2022-09-25T14:15:45;19.86;51.97
65584;DHT22;62116;43.582;1.470;2022-09-25T14:18:21;19.89;51.70
65584;DHT22;62116;43.582;1.470;2022-09-25T14:20:49;19.90;51.46
65584;DHT22;62116;43.582;1.470;2022-09-25T14:25:44;20.03;51.95
65584;DHT22;62116;43.582;1.470;2022-09-25T14:28:23;20.03;51.61
65584;DHT22;62116;43.582;1.470;2022-09-25T14:33:56;20.06;50.86
65584;DHT22;62116;43.582;1.470;2022-09-25T14:41:56;19.99;51.95
65584;DHT22;62116;43.582;1.470;2022-09-25T14:47:14;20.13;51.77
65584;DHT22;62116;43.582;1.470;2022-09-25T14:49:43;20.17;51.70
65584;DHT22;62116;43.582;1.470;2022-09-25T14:52:20;20.17;51.23
65584;DHT22;62116;43.582;1.470;2022-09-25T14:54:49;20.16;51.09
65584;DHT22;62116;43.582;1.470;2022-09-25T14:57:23;20.17;49.64
65584;DHT22;62116;43.582;1.470;2022-09-25T14:59:52;20.19;49.58
65584;DHT22;62116;43.582;1.470;2022-09-25T15:04:48;20.14;49.80
65584;DHT22;62116;43.582;1.470;2022-09-25T15:07:17;20.14;49.59
65584;DHT22;62116;43.582;1.470;2022-09-25T15:09:46;20.07;49.14
65584;DHT22;62116;43.582;1.470;2022-09-25T15:12:19;20.07;48.48
65584;DHT22;62116;43.582;1.470;2022-09-25T15:15:10;20.03;49.66
65584;DHT22;62116;43.582;1.470;2022-09-25T15:17:43;20.05;50.03
65584;DHT22;62116;43.582;1.470;2022-09-25T15:20:13;20.07;49.52
65584;DHT22;62116;43.582;1.470;2022-09-25T15:22:40;20.05;49.41
65584;DHT22;62116;43.582;1.470;2022-09-25T15:25:20;19.99;49.79
65584;DHT22;62116;43.582;1.470;2022-09-25T15:27:47;19.82;49.80
65584;DHT22;62116;43.582;1.470;2022-09-25T15:30:15;19.86;50.11
65584;DHT22;62116;43.582;1.470;2022-09-25T15:32:41;19.85;50.31
65584;DHT22;62116;43.582;1.470;2022-09-25T15:37:36;19.92;50.66
65584;DHT22;62116;43.582;1.470;2022-09-25T15:40:24;19.94;50.36
65584;DHT22;62116;43.582;1.470;2022-09-25T15:42:50;19.92;50.70
65584;DHT22;62116;43.582;1.470;2022-09-25T15:45:35;19.92;50.14
65584;DHT22;62116;43.582;1.470;2022-09-25T15:50:46;19.94;49.53
65584;DHT22;62116;43.582;1.470;2022-09-25T15:53:28;19.87;50.30
65584;DHT22;62116;43.582;1.470;2022-09-25T15:56:22;19.89;50.17
65584;DHT22;62116;43.582;1.470;2022-09-25T15:58:55;19.85;50.56
65584;DHT22;62116;43.582;1.470;2022-09-25T16:01:24;19.85;50.31
65584;DHT22;62116;43.582;1.470;2022-09-25T16:04:14;19.85;50.45
65584;DHT22;62116;43.582;1.470;2022-09-25T16:06:59;19.75;51.11
65584;DHT22;62116;43.582;1.470;2022-09-25T16:09:29;19.69;51.39
65584;DHT22;62116;43.582;1.470;2022-09-25T16:14:40;19.69;50.36
65584;DHT22;62116;43.582;1.470;2022-09-25T16:17:14;19.72;50.41
65584;DHT22;62116;43.582;1.470;2022-09-25T16:19:40;19.72;50.44
65584;DHT22;62116;43.582;1.470;2022-09-25T16:22:17;19.62;51.25
65584;DHT22;62116;43.582;1.470;2022-09-25T16:24:49;19.65;51.20
65584;DHT22;62116;43.582;1.470;2022-09-25T16:27:23;19.65;51.44
65584;DHT22;62116;43.582;1.470;2022-09-25T16:29:50;19.61;51.94
65584;DHT22;62116;43.582;1.470;2022-09-25T16:32:17;19.62;51.72
65584;DHT22;62116;43.582;1.470;2022-09-25T16:34:58;19.61;51.52
65584;DHT22;62116;43.582;1.470;2022-09-25T16:37:28;19.63;51.49
65584;DHT22;62116;43.582;1.470;2022-09-25T16:40:23;19.61;51.42
65584;DHT22;62116;43.582;1.470;2022-09-25T16:42:50;19.54;51.56
65584;DHT22;62116;43.582;1.470;2022-09-25T16:45:25;19.55;51.70
65584;DHT22;62116;43.582;1.470;2022-09-25T16:47:56;19.55;51.60
65584;DHT22;62116;43.582;1.470;2022-09-25T16:50:23;19.56;51.19
65584;DHT22;62116;43.582;1.470;2022-09-25T16:52:49;19.52;50.70
65584;DHT22;62116;43.582;1.470;2022-09-25T16:55:18;19.54;50.80
65584;DHT22;62116;43.582;1.470;2022-09-25T16:57:45;19.51;51.04
65584;DHT22;62116;43.582;1.470;2022-09-25T17:00:16;19.49;51.07
65584;DHT22;62116;43.582;1.470;2022-09-25T17:02:44;19.46;51.13
65584;DHT22;62116;43.582;1.470;2022-09-25T17:05:16;19.44;51.38
65584;DHT22;62116;43.582;1.470;2022-09-25T17:07:48;19.36;51.61
65584;DHT22;62116;43.582;1.470;2022-09-25T17:10:15;19.36;51.59
65584;DHT22;62116;43.582;1.470;2022-09-25T17:12:42;19.32;51.31
65584;DHT22;62116;43.582;1.470;2022-09-25T17:15:29;19.32;51.48
65584;DHT22;62116;43.582;1.470;2022-09-25T17:17:57;19.36;51.42
65584;DHT22;62116;43.582;1.470;2022-09-25T17:20:25;19.34;51.79
65584;DHT22;62116;43.582;1.470;2022-09-25T17:22:52;19.31;52.16
65584;DHT22;62116;43.582;1.470;2022-09-25T17:27:53;19.28;52.83
65584;DHT22;62116;43.582;1.470;2022-09-25T17:30:19;19.28;53.06
65584;DHT22;62116;43.582;1.470;2022-09-25T17:32:44;19.24;53.16
65584;DHT22;62116;43.582;1.470;2022-09-25T17:38:09;19.19;53.34
65584;DHT22;62116;43.582;1.470;2022-09-25T17:40:38;19.19;53.30
65584;DHT22;62116;43.582;1.470;2022-09-25T17:43:05;19.18;53.57
65584;DHT22;62116;43.582;1.470;2022-09-25T17:48:05;19.08;53.94
65584;DHT22;62116;43.582;1.470;2022-09-25T17:50:31;19.07;54.06
65584;DHT22;62116;43.582;1.470;2022-09-25T17:53:00;19.05;54.26
65584;DHT22;62116;43.582;1.470;2022-09-25T17:55:25;19.02;54.43
65584;DHT22;62116;43.582;1.470;2022-09-25T17:57:50;19.00;54.58
65584;DHT22;62116;43.582;1.470;2022-09-25T18:00:16;18.98;54.72
65584;DHT22;62116;43.582;1.470;2022-09-25T18:02:41;18.91;55.18
65584;DHT22;62116;43.582;1.470;2022-09-25T18:05:12;18.84;55.30
65584;DHT22;62116;43.582;1.470;2022-09-25T18:07:38;18.84;55.40
65584;DHT22;62116;43.582;1.470;2022-09-25T18:10:04;18.83;55.54
65584;DHT22;62116;43.582;1.470;2022-09-25T18:12:30;18.81;55.70
65584;DHT22;62116;43.582;1.470;2022-09-25T18:14:55;18.75;55.72
65584;DHT22;62116;43.582;1.470;2022-09-25T18:17:20;18.75;55.72
65584;DHT22;62116;43.582;1.470;2022-09-25T18:19:46;18.72;56.13
65584;DHT22;62116;43.582;1.470;2022-09-25T18:22:29;18.70;56.10
65584;DHT22;62116;43.582;1.470;2022-09-25T18:24:55;18.64;56.46